Time;durP1;ratioP1;P1;durP2;ratioP2;P2;SDS_P1;SDS_P2;PMS_P1;PMS_P2;Temp;Humidity;BMP_temperature;BMP_pressure;BME280_temperature;BME280_humidity;BME280_pressure;Samples;Min_cycle;Max_cycle;Signal;HPM_P1;HPM_P2
2023/07/31 00:00:05;;;;;;;;;3.00;3.00;;;;;21.40;53.94;100958.34;5035184;28;55635;-70
2023/07/31 00:02:31;;;;;;;;;4.25;3.50;;;;;21.38;53.92;100962.94;5033391;28;45461;-70
2023/07/31 00:04:56;;;;;;;;;4.75;2.50;;;;;21.36;54.33;100956.03;5008639;28;58021;-70
2023/07/31 00:07:22;;;;;;;;;3.00;2.00;;;;;21.38;53.65;100970.09;5034928;28;59505;-69
2023/07/31 00:09:47;;;;;;;;;5.50;3.50;;;;;21.36;53.79;100954.22;5032373;28;45446;-69
2023/07/31 00:12:12;;;;;;;;;2.00;1.75;;;;;21.36;53.74;100948.03;5025822;28;67517;-69
2023/07/31 00:14:38;;;;;;;;;3.00;3.00;;;;;21.33;53.68;100953.56;5028616;28;68886;-70
2023/07/31 00:17:03;;;;;;;;;3.00;3.00;;;;;21.32;53.82;100955.38;5013817;28;59513;-69
2023/07/31 00:19:29;;;;;;;;;3.25;2.75;;;;;21.32;54.09;100959.84;5039237;28;45325;-70
2023/07/31 00:21:54;;;;;;;;;2.00;2.00;;;;;21.30;53.67;100946.66;5026580;28;45351;-70
2023/07/31 00:24:19;;;;;;;;;5.00;2.00;;;;;21.28;54.33;100942.38;5027674;28;67858;-69
2023/07/31 00:26:45;;;;;;;;;2.00;1.50;;;;;21.27;53.97;100941.53;5028392;28;45466;-70
2023/07/31 00:29:10;;;;;;;;;4.00;2.25;;;;;21.26;54.01;100934.50;5027320;28;67958;-70
2023/07/31 00:31:35;;;;;;;;;3.00;2.00;;;;;21.26;54.30;100928.34;5037395;28;71700;-70
2023/07/31 00:34:00;;;;;;;;;4.25;2.50;;;;;21.25;54.05;100932.81;5023583;28;59014;-70
2023/07/31 00:36:26;;;;;;;;;3.25;2.50;;;;;21.27;54.30;100928.22;5034281;28;53846;-70
2023/07/31 00:38:51;;;;;;;;;4.00;2.25;;;;;21.25;54.67;100935.47;5042022;28;64357;-70
2023/07/31 00:41:16;;;;;;;;;2.00;2.00;;;;;21.20;54.11;100925.13;5033083;28;46254;-70
2023/07/31 00:43:42;;;;;;;;;4.00;1.25;;;;;21.19;53.96;100928.75;5048405;28;64267;-70
2023/07/31 00:46:07;;;;;;;;;3.50;3.00;;;;;21.20;54.21;100926.94;5037649;28;45352;-70
2023/07/31 00:48:33;;;;;;;;;2.75;2.00;;;;;21.22;54.10;100925.03;5027603;28;45535;-71
2023/07/31 00:51:00;;;;;;;;;3.00;3.00;;;;;21.21;54.11;100928.63;5020746;28;48196;-70
2023/07/31 00:53:26;;;;;;;;;3.00;3.00;;;;;21.19;54.04;100922.56;5020887;28;45625;-70
2023/07/31 00:55:52;;;;;;;;;2.75;2.50;;;;;21.21;54.18;100932.16;5015365;28;45519;-70
2023/07/31 00:58:17;;;;;;;;;2.50;2.25;;;;;21.20;54.57;100925.13;5022164;28;47816;-70
2023/07/31 01:00:43;;;;;;;;;5.25;2.50;;;;;21.10;54.41;100910.75;5034566;28;62624;-70
2023/07/31 01:03:09;;;;;;;;;3.25;2.00;;;;;21.19;54.61;100925.22;5034422;28;45654;-70
2023/07/31 01:06:15;;;;;;;;;2.00;2.00;;;;;21.19;54.12;100918.09;5041521;28;45610;-70
2023/07/31 01:08:48;;;;;;;;;4.25;3.50;;;;;21.21;54.39;100918.88;5030098;28;45490;-70
2023/07/31 01:11:17;;;;;;;;;3.25;2.00;;;;;21.21;54.27;100912.66;5047433;28;46535;-70
2023/07/31 01:13:44;;;;;;;;;2.00;2.00;;;;;21.18;54.46;100899.59;5015347;28;45328;-71
2023/07/31 01:16:09;;;;;;;;;2.00;2.00;;;;;21.18;54.37;100902.25;5031288;28;45562;-70
2023/07/31 01:18:34;;;;;;;;;5.75;3.00;;;;;21.19;54.13;100904.78;5031077;28;61274;-70
2023/07/31 01:21:22;;;;;;;;;2.25;1.25;;;;;21.18;54.37;100887.13;5022026;28;69016;-70
2023/07/31 01:23:50;;;;;;;;;3.00;1.75;;;;;21.17;54.23;100881.91;5013569;28;46971;-70
2023/07/31 01:26:21;;;;;;;;;4.00;2.75;;;;;21.12;53.86;100876.06;5033532;28;45490;-70
2023/07/31 01:28:56;;;;;;;;;2.25;2.25;;;;;21.12;54.05;100866.25;5033370;28;45336;-70
2023/07/31 01:31:23;;;;;;;;;3.25;2.00;;;;;21.07;54.30;100868.41;5027353;28;45505;-70
2023/07/31 01:33:50;;;;;;;;;3.00;2.00;;;;;21.08;54.07;100879.88;5011879;28;45621;-70
2023/07/31 01:36:16;;;;;;;;;4.00;2.25;;;;;21.05;54.13;100880.94;5051610;28;45347;-70
2023/07/31 01:38:41;;;;;;;;;5.00;2.75;;;;;21.02;53.82;100883.81;5031240;28;63091;-70
2023/07/31 01:41:06;;;;;;;;;3.00;2.25;;;;;20.99;54.06;100884.88;5036962;28;47250;-70
2023/07/31 01:43:32;;;;;;;;;7.50;2.25;;;;;20.96;54.38;100882.41;5031431;28;68821;-71
2023/07/31 01:45:57;;;;;;;;;2.00;1.00;;;;;20.95;53.90;100877.22;5026144;28;62131;-70
2023/07/31 01:48:22;;;;;;;;;2.00;2.00;;;;;20.95;54.08;100879.88;5023011;28;68026;-71
2023/07/31 01:50:48;;;;;;;;;1.50;1.50;;;;;20.92;53.79;100875.59;5040253;28;67836;-70
2023/07/31 01:53:13;;;;;;;;;4.25;2.00;;;;;20.90;53.81;100869.53;5033163;28;45368;-70
2023/07/31 01:55:39;;;;;;;;;2.75;2.00;;;;;20.92;53.98;100878.28;5027579;28;46289;-70
2023/07/31 01:58:04;;;;;;;;;3.25;2.00;;;;;20.92;53.95;100880.09;5035906;28;45444;-70
2023/07/31 02:00:29;;;;;;;;;4.25;2.00;;;;;20.91;53.87;100876.59;5034752;28;75677;-70
2023/07/31 02:02:54;;;;;;;;;2.25;2.00;;;;;20.91;53.67;100881.91;5030816;28;45677;-70
2023/07/31 02:05:20;;;;;;;;;5.00;2.50;;;;;20.93;53.60;100884.44;5033754;28;63734;-70
2023/07/31 02:07:45;;;;;;;;;2.75;2.00;;;;;20.88;53.94;100881.25;5022609;28;49168;-70
2023/07/31 02:10:11;;;;;;;;;4.00;2.25;;;;;20.87;53.49;100877.72;5044450;28;45929;-70
2023/07/31 02:12:36;;;;;;;;;4.00;2.00;;;;;20.86;53.28;100898.16;5023651;28;45467;-70
2023/07/31 02:15:01;;;;;;;;;5.50;1.75;;;;;20.85;53.84;100883.16;5025869;28;45526;-69
2023/07/31 02:17:27;;;;;;;;;3.50;1.50;;;;;20.84;53.26;100867.28;5024390;28;45502;-70
2023/07/31 02:19:52;;;;;;;;;3.75;2.00;;;;;20.79;53.34;100870.28;5043950;28;45465;-69
2023/07/31 02:22:18;;;;;;;;;2.75;1.00;;;;;20.79;53.61;100864.13;5021391;28;45495;-70
2023/07/31 02:24:43;;;;;;;;;2.00;1.00;;;;;20.79;53.53;100864.97;5015523;28;46047;-69
2023/07/31 02:27:08;;;;;;;;;1.00;1.00;;;;;20.78;53.65;100852.59;5015953;28;69603;-70
2023/07/31 02:29:34;;;;;;;;;4.00;2.00;;;;;20.78;53.67;100849.94;5016785;28;63734;-70
2023/07/31 02:31:59;;;;;;;;;4.00;1.00;;;;;20.79;53.53;100845.50;5038682;28;45276;-70
2023/07/31 02:34:24;;;;;;;;;1.00;1.00;;;;;20.77;53.40;100852.72;5024993;28;60416;-70
2023/07/31 02:36:49;;;;;;;;;3.75;1.00;;;;;20.75;53.05;100843.97;5024172;28;73350;-70
2023/07/31 02:39:15;;;;;;;;;2.50;2.25;;;;;20.72;53.35;100842.41;5019362;28;47966;-70
2023/07/31 02:41:40;;;;;;;;;3.00;1.75;;;;;20.69;53.24;100828.47;5015109;28;65011;-70
2023/07/31 02:44:05;;;;;;;;;3.00;1.50;;;;;20.68;53.44;100827.59;5045833;28;68392;-70
2023/07/31 02:46:31;;;;;;;;;3.00;1.25;;;;;20.64;53.57;100834.91;5047100;28;68542;-70
2023/07/31 02:48:56;;;;;;;;;3.25;1.75;;;;;20.66;53.39;100833.03;5039302;28;45400;-70
2023/07/31 02:51:22;;;;;;;;;1.00;1.00;;;;;20.60;53.24;100828.09;5040887;28;45332;-70
2023/07/31 02:53:47;;;;;;;;;2.00;2.00;;;;;20.59;53.78;100813.09;5013041;28;63271;-70
2023/07/31 02:56:13;;;;;;;;;1.00;1.00;;;;;20.61;53.00;100812.97;5032055;28;45561;-70
2023/07/31 02:58:38;;;;;;;;;1.00;1.00;;;;;20.61;53.30;100813.88;5025958;28;46173;-70
2023/07/31 03:01:04;;;;;;;;;0.00;0.00;;;;;20.56;53.25;100802.66;5032579;28;58099;-71
2023/07/31 03:03:29;;;;;;;;;5.00;1.00;;;;;20.53;52.93;100810.00;5027012;28;56660;-70
2023/07/31 03:05:54;;;;;;;;;4.00;2.00;;;;;20.49;53.34;100806.69;5017379;28;45719;-70
2023/07/31 03:08:20;;;;;;;;;4.25;1.00;;;;;20.48;53.21;100812.97;5011939;28;60874;-70
2023/07/31 03:10:46;;;;;;;;;3.50;1.00;;;;;20.45;53.61;100819.34;5027640;28;45435;-70
2023/07/31 03:13:11;;;;;;;;;1.75;1.00;;;;;20.44;53.74;100812.31;5029014;28;66015;-70
2023/07/31 03:15:36;;;;;;;;;5.00;2.00;;;;;20.43;53.63;100817.72;5027713;28;62129;-70
2023/07/31 03:18:02;;;;;;;;;2.00;0.75;;;;;20.44;53.48;100824.75;5042996;28;67447;-70
2023/07/31 03:20:27;;;;;;;;;2.75;1.00;;;;;20.39;53.25;100817.09;5037781;28;45702;-70
2023/07/31 03:22:52;;;;;;;;;1.50;1.00;;;;;20.42;53.40;100824.03;5034754;28;60999;-70
2023/07/31 03:25:18;;;;;;;;;1.25;1.00;;;;;20.42;53.13;100822.19;5023634;28;65575;-70
2023/07/31 03:27:43;;;;;;;;;3.50;1.00;;;;;20.44;53.24;100816.78;5039711;28;62438;-69
2023/07/31 03:30:09;;;;;;;;;1.00;1.00;;;;;20.42;53.29;100811.56;5031018;28;51817;-70
2023/07/31 03:32:34;;;;;;;;;1.00;1.00;;;;;20.43;53.25;100812.41;5021427;28;45502;-70
2023/07/31 03:35:00;;;;;;;;;1.50;1.00;;;;;20.38;53.52;100806.56;5026262;28;60932;-70
2023/07/31 03:37:26;;;;;;;;;0.00;0.00;;;;;20.41;53.57;100799.22;5021378;28;45206;-70
2023/07/31 03:39:51;;;;;;;;;1.00;1.00;;;;;20.39;53.43;100798.47;5025697;28;45911;-70
2023/07/31 03:42:16;;;;;;;;;1.00;1.00;;;;;20.41;53.49;100798.38;5025926;28;64376;-70
2023/07/31 03:44:42;;;;;;;;;0.50;0.50;;;;;20.38;53.03;100796.78;5016032;28;45282;-70
2023/07/31 03:47:07;;;;;;;;;4.75;1.00;;;;;20.36;53.26;100808.47;5027613;28;69177;-70
2023/07/31 03:49:32;;;;;;;;;1.00;1.00;;;;;20.34;53.02;100805.06;5008382;28;64003;-70
2023/07/31 03:51:58;;;;;;;;;2.00;1.00;;;;;20.27;53.07;100791.31;5033722;28;66198;-70
2023/07/31 03:54:23;;;;;;;;;2.00;2.00;;;;;20.33;53.54;100801.56;5033066;28;73078;-70
2023/07/31 03:56:49;;;;;;;;;0.00;0.00;;;;;20.29;53.37;100787.63;5016706;28;46968;-70
2023/07/31 03:59:15;;;;;;;;;4.25;1.00;;;;;20.34;53.23;100797.94;5037402;28;45428;-70
2023/07/31 04:01:40;;;;;;;;;3.00;1.00;;;;;20.35;53.54;100798.81;5031104;28;64363;-70
2023/07/31 04:04:05;;;;;;;;;1.75;1.00;;;;;20.33;53.21;100788.28;5010488;28;69274;-70
2023/07/31 04:06:31;;;;;;;;;2.25;1.00;;;;;20.33;53.33;100792.72;5037654;28;45630;-70
2023/07/31 04:08:56;;;;;;;;;3.00;2.00;;;;;20.31;53.38;100784.88;5043301;28;45838;-71
2023/07/31 04:11:21;;;;;;;;;5.00;2.00;;;;;20.29;52.99;100784.09;5036357;28;45566;-71
2023/07/31 04:13:47;;;;;;;;;1.75;1.25;;;;;20.28;52.97;100795.69;5027939;28;66505;-71
2023/07/31 04:16:12;;;;;;;;;2.00;1.00;;;;;20.20;52.66;100790.03;5020830;28;72333;-70
2023/07/31 04:18:38;;;;;;;;;1.75;1.75;;;;;20.23;52.90;100792.50;5027517;28;63960;-70
2023/07/31 04:21:03;;;;;;;;;2.00;2.00;;;;;20.23;52.70;100789.84;5025305;28;45376;-70
2023/07/31 04:23:28;;;;;;;;;2.75;1.25;;;;;20.25;52.87;100790.59;5021473;28;46000;-70
2023/07/31 04:25:54;;;;;;;;;5.50;2.00;;;;;20.27;52.59;100793.97;5016355;28;46615;-70
2023/07/31 04:28:19;;;;;;;;;2.50;1.50;;;;;20.27;52.12;100784.22;5020720;28;68003;-70
2023/07/31 04:30:44;;;;;;;;;1.75;1.75;;;;;20.22;52.37;100794.31;5028951;28;50206;-70
2023/07/31 04:33:10;;;;;;;;;5.00;1.75;;;;;20.22;51.95;100786.34;5037205;28;59619;-69
2023/07/31 04:35:35;;;;;;;;;1.75;1.50;;;;;20.23;52.38;100790.69;5033384;28;45973;-69
2023/07/31 04:38:00;;;;;;;;;3.00;2.00;;;;;20.22;52.29;100789.00;5027024;28;45369;-69
2023/07/31 04:40:26;;;;;;;;;1.00;1.00;;;;;20.24;51.88;100796.88;5021306;28;45357;-69
2023/07/31 04:42:51;;;;;;;;;1.25;1.00;;;;;20.25;52.12;100799.41;5032848;28;62594;-69
2023/07/31 04:45:17;;;;;;;;;4.00;2.00;;;;;20.21;52.13;100781.97;5029514;28;45686;-70
2023/07/31 04:47:42;;;;;;;;;1.50;1.50;;;;;20.23;52.08;100789.84;5027151;28;45437;-71
2023/07/31 04:50:08;;;;;;;;;2.00;1.00;;;;;20.23;51.91;100792.50;5010992;28;45315;-71
2023/07/31 04:52:33;;;;;;;;;4.25;3.50;;;;;20.21;52.37;100805.03;5032683;28;45297;-68
2023/07/31 04:54:58;;;;;;;;;2.25;2.25;;;;;20.14;52.05;100798.44;5026617;28;65998;-71
2023/07/31 04:57:24;;;;;;;;;3.75;2.75;;;;;20.15;52.08;100806.31;5045491;28;46810;-68
2023/07/31 04:59:49;;;;;;;;;1.75;1.75;;;;;20.13;52.32;100797.56;5031492;28;47700;-68
2023/07/31 05:02:14;;;;;;;;;3.00;2.00;;;;;20.09;52.50;100799.56;5034217;28;67313;-68
2023/07/31 05:04:40;;;;;;;;;3.00;2.00;;;;;20.04;52.54;100791.06;5023687;28;57382;-68
2023/07/31 05:07:05;;;;;;;;;2.50;2.00;;;;;20.10;52.52;100803.09;5037748;28;45432;-68
2023/07/31 05:09:31;;;;;;;;;3.25;2.00;;;;;20.04;53.33;100793.72;5046429;28;45299;-69
2023/07/31 05:11:56;;;;;;;;;4.00;2.00;;;;;20.10;53.12;100797.78;5035817;28;45527;-68
2023/07/31 05:14:21;;;;;;;;;6.00;2.00;;;;;20.09;52.94;100796.06;5007259;28;68234;-69
2023/07/31 05:16:47;;;;;;;;;4.00;3.00;;;;;20.10;53.09;100798.63;5020558;28;45377;-69
2023/07/31 05:19:12;;;;;;;;;3.25;2.25;;;;;20.10;53.51;100798.63;5038125;28;45472;-70
2023/07/31 05:21:38;;;;;;;;;3.50;2.00;;;;;20.03;53.62;100789.34;5029526;28;57015;-70
2023/07/31 05:24:03;;;;;;;;;4.00;2.00;;;;;20.06;53.43;100796.25;5017833;28;47136;-70
2023/07/31 05:26:28;;;;;;;;;2.00;2.00;;;;;20.07;53.49;100795.31;5030843;28;45568;-70
2023/07/31 05:28:54;;;;;;;;;5.00;3.25;;;;;20.06;53.88;100797.13;5013769;28;66255;-70
2023/07/31 05:31:20;;;;;;;;;6.50;4.00;;;;;20.05;54.34;100789.25;5024569;28;60099;-70
2023/07/31 05:33:46;;;;;;;;;4.00;2.50;;;;;20.01;54.38;100785.09;5024111;28;45537;-70
2023/07/31 05:36:11;;;;;;;;;6.00;1.25;;;;;19.98;54.73;100780.84;5027441;28;45307;-70
2023/07/31 05:38:36;;;;;;;;;3.00;3.00;;;;;20.00;54.92;100786.91;5018155;28;45478;-70
2023/07/31 05:41:03;;;;;;;;;4.00;4.00;;;;;19.99;54.71;100777.25;5028942;28;72294;-69
2023/07/31 05:43:29;;;;;;;;;7.50;4.00;;;;;20.00;54.86;100778.94;5028858;28;65782;-70
2023/07/31 05:45:54;;;;;;;;;3.25;3.25;;;;;20.04;54.86;100775.13;5028521;28;45458;-72
2023/07/31 05:48:19;;;;;;;;;3.75;2.50;;;;;20.07;54.83;100774.06;5021166;28;61263;-73
2023/07/31 05:50:45;;;;;;;;;5.00;3.00;;;;;20.13;55.49;100762.16;5031890;28;54848;-69
2023/07/31 05:53:10;;;;;;;;;3.50;3.00;;;;;20.13;54.91;100755.03;5033354;28;50326;-69
2023/07/31 05:55:36;;;;;;;;;7.75;4.75;;;;;20.18;54.80;100763.56;5025287;28;45508;-70
2023/07/31 05:58:01;;;;;;;;;6.00;5.00;;;;;20.20;55.36;100760.81;5029009;28;45363;-69
2023/07/31 06:00:27;;;;;;;;;3.25;3.00;;;;;20.21;54.76;100754.56;5018199;28;45466;-69
2023/07/31 06:02:53;;;;;;;;;7.75;5.25;;;;;20.18;55.30;100744.13;5018507;28;46415;-70
2023/07/31 06:05:19;;;;;;;;;4.00;4.00;;;;;20.22;55.20;100740.28;5026627;28;45383;-72
2023/07/31 06:07:45;;;;;;;;;5.75;4.00;;;;;20.29;55.09;100754.88;5033170;28;45522;-71
2023/07/31 06:10:11;;;;;;;;;7.25;3.25;;;;;20.28;55.14;100751.38;5030167;28;46935;-70
2023/07/31 06:12:36;;;;;;;;;4.25;4.00;;;;;20.28;55.47;100742.56;5025364;28;46842;-68
2023/07/31 06:15:03;;;;;;;;;6.00;5.00;;;;;20.24;55.65;100744.56;5026376;28;63683;-72
2023/07/31 06:17:28;;;;;;;;;6.75;6.00;;;;;20.23;55.32;100737.53;5023038;28;45496;-68
2023/07/31 06:19:54;;;;;;;;;5.75;4.50;;;;;20.26;55.63;100742.66;5033203;28;45221;-69
2023/07/31 06:22:19;;;;;;;;;5.75;5.25;;;;;20.29;55.86;100733.59;5043966;28;45483;-69
2023/07/31 06:24:45;;;;;;;;;7.50;5.00;;;;;20.28;55.79;100726.59;5019219;28;62403;-68
2023/07/31 06:27:11;;;;;;;;;7.25;3.50;;;;;20.31;55.49;100731.72;5029112;28;50018;-72
2023/07/31 06:29:36;;;;;;;;;8.00;5.75;;;;;20.36;56.03;100742.03;5034985;28;45599;-73
2023/07/31 06:32:02;;;;;;;;;5.00;4.25;;;;;20.32;56.17;100741.38;5028786;28;45732;-71
2023/07/31 06:34:28;;;;;;;;;4.75;4.75;;;;;20.38;56.21;100748.94;5031867;28;45541;-73
2023/07/31 06:36:53;;;;;;;;;6.50;4.75;;;;;20.39;56.16;100763.09;5036072;28;45377;-72
2023/07/31 06:39:18;;;;;;;;;5.00;4.00;;;;;20.36;56.49;100753.53;5045696;28;45682;-71
2023/07/31 06:41:44;;;;;;;;;7.00;4.25;;;;;20.35;55.80;100746.50;5044326;28;52608;-71
2023/07/31 06:44:09;;;;;;;;;6.75;4.50;;;;;20.33;56.18;100737.78;5016944;28;45407;-73
2023/07/31 06:46:35;;;;;;;;;9.25;5.50;;;;;20.38;55.84;100748.94;5036252;28;45267;-71
2023/07/31 06:49:00;;;;;;;;;7.25;4.00;;;;;20.41;56.18;100761.16;5018514;28;45616;-72
2023/07/31 06:51:26;;;;;;;;;5.00;4.25;;;;;20.34;56.42;100746.59;5034374;28;60310;-70
2023/07/31 06:53:51;;;;;;;;;6.75;4.00;;;;;20.32;56.53;100754.66;5033528;28;47053;-70
2023/07/31 06:56:17;;;;;;;;;3.75;3.00;;;;;20.35;56.81;100753.63;5025094;28;60368;-71
2023/07/31 06:58:42;;;;;;;;;6.75;2.75;;;;;20.32;56.79;100762.63;5023535;28;45220;-77
2023/07/31 07:01:08;;;;;;;;;7.75;3.75;;;;;20.37;56.50;100762.34;5019463;28;47698;-71
2023/07/31 07:03:33;;;;;;;;;9.00;5.00;;;;;20.30;56.50;100753.91;5023465;28;45308;-71
2023/07/31 07:05:59;;;;;;;;;5.00;5.00;;;;;20.37;57.31;100749.06;5032251;28;45544;-71
2023/07/31 07:08:24;;;;;;;;;6.00;5.00;;;;;20.45;57.15;100758.22;5034869;28;66049;-71
2023/07/31 07:10:49;;;;;;;;;7.75;5.00;;;;;20.51;56.92;100756.09;5022709;28;46953;-71
2023/07/31 07:13:15;;;;;;;;;7.00;5.00;;;;;20.59;56.66;100749.28;5035275;28;58809;-71
2023/07/31 07:15:40;;;;;;;;;7.00;6.00;;;;;20.61;56.33;100736.78;5021649;28;45369;-71
2023/07/31 07:18:06;;;;;;;;;3.50;1.50;;;;;20.72;56.35;100735.19;5021643;28;45611;-71
2023/07/31 07:20:31;;;;;;;;;5.25;3.25;;;;;20.79;56.09;100734.63;5038952;28;46919;-71
2023/07/31 07:22:57;;;;;;;;;7.50;5.00;;;;;20.82;56.23;100737.09;5027321;28;45391;-71
2023/07/31 07:25:22;;;;;;;;;6.50;5.00;;;;;20.84;56.75;100727.19;5021501;28;45654;-71
2023/07/31 07:27:47;;;;;;;;;6.00;4.50;;;;;20.91;56.29;100732.06;5036920;28;69759;-71
2023/07/31 07:30:14;;;;;;;;;8.50;4.75;;;;;20.94;55.92;100732.69;5019735;28;65939;-71
2023/07/31 07:32:39;;;;;;;;;8.50;6.25;;;;;21.03;56.17;100733.84;5029183;28;46119;-71
2023/07/31 07:35:06;;;;;;;;;5.00;5.00;;;;;21.10;55.89;100727.13;5021211;28;45249;-71
2023/07/31 07:37:31;;;;;;;;;5.25;3.00;;;;;21.17;55.70;100722.22;5038157;28;45817;-71
2023/07/31 07:39:57;;;;;;;;;5.25;5.25;;;;;21.33;55.38;100720.16;5038692;28;54173;-71
2023/07/31 07:42:22;;;;;;;;;4.50;4.50;;;;;21.46;55.06;100728.16;5037464;28;45869;-71
2023/07/31 07:44:48;;;;;;;;;7.25;5.00;;;;;21.57;55.06;100728.19;5035273;28;45310;-71
2023/07/31 07:47:13;;;;;;;;;3.75;1.25;;;;;21.69;55.05;100722.91;5020208;28;68828;-71
2023/07/31 07:49:38;;;;;;;;;4.00;4.00;;;;;21.76;54.66;100706.38;5032013;28;45881;-71
2023/07/31 07:52:05;;;;;;;;;4.50;4.00;;;;;21.83;54.46;100711.25;5048730;28;45450;-71
2023/07/31 07:54:30;;;;;;;;;5.00;5.00;;;;;21.90;54.52;100720.47;5024617;28;45630;-72
2023/07/31 07:56:56;;;;;;;;;6.75;4.25;;;;;21.89;54.29;100724.97;5035011;28;45309;-71
2023/07/31 07:59:21;;;;;;;;;11.00;5.00;;;;;21.93;54.32;100723.75;5038121;28;45486;-70
2023/07/31 08:01:47;;;;;;;;;4.75;4.50;;;;;21.96;54.36;100712.03;5036667;28;45358;-71
2023/07/31 08:04:12;;;;;;;;;10.00;4.75;;;;;21.99;53.54;100707.31;5035475;28;51291;-71
2023/07/31 08:06:37;;;;;;;;;4.75;4.00;;;;;22.10;53.91;100722.50;5028226;28;63285;-72
2023/07/31 08:09:06;;;;;;;;;9.25;5.50;;;;;22.14;53.50;100707.97;5038520;28;45400;-72
2023/07/31 08:11:31;;;;;;;;;8.00;5.00;;;;;22.23;53.42;100716.25;5033549;28;45364;-72
2023/07/31 08:13:57;;;;;;;;;12.25;10.00;;;;;22.29;52.49;100714.00;5037766;28;45828;-71
2023/07/31 08:16:22;;;;;;;;;6.75;6.25;;;;;22.30;53.05;100718.34;5031044;28;53591;-71
2023/07/31 08:18:48;;;;;;;;;5.50;4.00;;;;;22.33;52.58;100714.59;5038036;28;74350;-72
2023/07/31 08:21:14;;;;;;;;;6.00;5.75;;;;;22.32;52.60;100710.22;5045572;28;45931;-71
2023/07/31 08:23:40;;;;;;;;;7.00;4.25;;;;;22.33;52.52;100707.44;5033222;28;45285;-71
2023/07/31 08:26:05;;;;;;;;;6.50;5.00;;;;;22.39;52.17;100716.78;5020057;28;45519;-71
2023/07/31 08:28:31;;;;;;;;;6.50;4.00;;;;;22.40;52.10;100709.63;5037097;28;45969;-72
2023/07/31 08:30:56;;;;;;;;;7.75;5.75;;;;;22.41;52.05;100703.34;5034747;28;62059;-71
2023/07/31 08:33:21;;;;;;;;;4.25;2.25;;;;;22.44;52.05;100706.63;5018927;28;56410;-72
2023/07/31 08:35:47;;;;;;;;;8.50;5.00;;;;;22.51;51.99;100705.16;5037462;28;45462;-72
2023/07/31 08:38:12;;;;;;;;;8.50;4.25;;;;;22.55;51.93;100698.63;5031181;28;48040;-71
2023/07/31 08:40:38;;;;;;;;;30.00;24.00;;;;;22.53;51.41;100687.22;5023610;28;62441;-72
2023/07/31 08:43:04;;;;;;;;;32.75;23.00;;;;;22.56;51.18;100689.66;5039069;28;45317;-72
2023/07/31 08:45:30;;;;;;;;;9.00;8.25;;;;;22.55;51.91;100689.78;5034840;28;45689;-71
2023/07/31 08:47:56;;;;;;;;;25.50;18.50;;;;;22.54;51.87;100696.94;5031957;28;46234;-73
2023/07/31 08:50:22;;;;;;;;;6.25;5.00;;;;;22.47;51.13;100692.19;5026791;28;45700;-71
2023/07/31 08:52:48;;;;;;;;;6.75;5.00;;;;;22.46;51.63;100687.81;5036891;28;45330;-74
2023/07/31 08:55:14;;;;;;;;;9.00;4.50;;;;;22.42;51.44;100681.88;5030522;28;45341;-73
2023/07/31 08:57:41;;;;;;;;;6.50;5.75;;;;;22.47;52.07;100681.50;5032470;28;46323;-73
2023/07/31 09:00:09;;;;;;;;;7.00;5.00;;;;;22.46;51.16;100671.84;5005563;28;45838;-73
2023/07/31 09:02:56;;;;;;;;;5.25;4.50;;;;;22.56;51.73;100673.66;5034584;28;45351;-71
2023/07/31 09:05:21;;;;;;;;;6.00;4.75;;;;;22.68;51.30;100674.50;5035076;28;45160;-71
2023/07/31 09:07:48;;;;;;;;;5.00;4.25;;;;;22.81;51.60;100685.06;5035361;28;45474;-70
2023/07/31 09:10:13;;;;;;;;;4.00;4.00;;;;;22.84;51.46;100687.50;5029905;28;45452;-70
2023/07/31 09:12:39;;;;;;;;;6.25;4.25;;;;;22.81;51.25;100695.72;5045492;28;45865;-70
2023/07/31 09:15:05;;;;;;;;;8.00;5.50;;;;;22.72;51.53;100689.31;5033136;28;64047;-69
2023/07/31 09:17:32;;;;;;;;;3.50;3.00;;;;;22.72;51.96;100683.97;5035696;28;46906;-70
2023/07/31 09:19:58;;;;;;;;;20.25;13.50;;;;;22.77;51.72;100691.63;5033190;28;45712;-71
2023/07/31 09:22:34;;;;;;;;;6.00;4.00;;;;;22.88;51.22;100694.25;5022814;28;45471;-70
2023/07/31 09:25:15;;;;;;;;;6.00;4.00;;;;;22.93;51.67;100691.25;5037246;28;46190;-75
2023/07/31 09:27:47;;;;;;;;;6.50;4.75;;;;;23.00;51.25;100702.25;5024272;28;46644;-82
2023/07/31 09:30:12;;;;;;;;;10.75;4.00;;;;;22.91;51.44;100710.03;5031552;28;45298;-74
2023/07/31 09:32:37;;;;;;;;;77.25;65.50;;;;;22.81;51.81;100698.41;5036974;28;45480;-73
2023/07/31 09:35:13;;;;;;;;;21.00;18.75;;;;;22.79;51.51;100695.00;5016448;28;66289;-74
2023/07/31 09:37:39;;;;;;;;;4.00;4.00;;;;;22.68;51.69;100690.53;5025967;28;46150;-75
2023/07/31 09:40:05;;;;;;;;;6.50;4.75;;;;;22.62;51.94;100684.81;5033835;28;69961;-75
2023/07/31 09:42:31;;;;;;;;;6.25;4.25;;;;;22.56;52.14;100691.47;5022508;28;45714;-75
2023/07/31 09:45:08;;;;;;;;;5.25;5.00;;;;;22.53;52.75;100692.56;5029126;28;45497;-74
2023/07/31 09:47:33;;;;;;;;;4.25;4.25;;;;;22.44;52.05;100690.63;5022796;28;45402;-73
2023/07/31 09:49:58;;;;;;;;;9.00;5.25;;;;;22.40;52.56;100685.63;5026712;28;64721;-73
2023/07/31 09:52:26;;;;;;;;;6.50;3.25;;;;;22.45;53.26;100662.13;5035385;28;45368;-73
2023/07/31 09:54:52;;;;;;;;;7.75;4.75;;;;;22.58;53.29;100678.88;5018362;28;45510;-80
2023/07/31 09:57:19;;;;;;;;;5.00;4.00;;;;;22.61;53.07;100678.63;5029902;28;72043;-73
2023/07/31 09:59:46;;;;;;;;;5.75;3.75;;;;;22.62;52.61;100682.97;5012858;28;45341;-74
2023/07/31 10:02:15;;;;;;;;;6.50;4.00;;;;;22.66;53.04;100672.91;5034312;28;45484;-74
2023/07/31 10:04:43;;;;;;;;;9.00;5.00;;;;;22.57;52.79;100655.81;5030993;28;45383;-74
2023/07/31 10:07:09;;;;;;;;;7.50;5.00;;;;;22.56;54.14;100662.16;5033366;28;54942;-72
2023/07/31 10:09:34;;;;;;;;;5.25;4.00;;;;;22.51;54.08;100648.31;5003057;28;45879;-75
2023/07/31 10:12:01;;;;;;;;;7.75;4.75;;;;;22.44;53.84;100642.63;5027904;28;45533;-76
2023/07/31 10:14:26;;;;;;;;;9.25;4.50;;;;;22.42;54.87;100641.88;5033335;28;45457;-80
2023/07/31 10:16:52;;;;;;;;;21.50;18.25;;;;;22.33;54.77;100648.78;5018678;28;47691;-74
2023/07/31 10:19:18;;;;;;;;;7.25;4.75;;;;;22.29;54.44;100649.13;5038509;28;45685;-75
2023/07/31 10:21:45;;;;;;;;;6.00;6.00;;;;;22.14;55.94;100654.66;5031457;28;46457;-78
2023/07/31 10:24:11;;;;;;;;;5.75;5.25;;;;;22.08;54.88;100651.59;5037351;28;45422;-75
2023/07/31 10:26:38;;;;;;;;;44.00;34.00;;;;;22.02;55.91;100649.44;5021917;28;48681;-75
2023/07/31 10:29:05;;;;;;;;;7.25;5.75;;;;;21.94;55.77;100650.88;5020278;28;45699;-75
2023/07/31 10:31:31;;;;;;;;;8.75;4.75;;;;;21.90;57.29;100641.41;5021798;28;45466;-76
2023/07/31 10:33:59;;;;;;;;;6.00;5.25;;;;;21.88;56.81;100629.16;5034045;28;45357;-77
2023/07/31 10:36:24;;;;;;;;;8.50;6.00;;;;;21.88;57.26;100632.66;5024681;28;48058;-76
2023/07/31 10:38:50;;;;;;;;;5.00;4.00;;;;;21.87;56.77;100646.97;5033734;28;45361;-69
2023/07/31 10:41:16;;;;;;;;;11.50;6.75;;;;;21.68;58.23;100639.50;5027106;28;45321;-69
2023/07/31 10:43:41;;;;;;;;;7.50;6.00;;;;;21.54;57.85;100635.22;5017982;28;45173;-72
2023/07/31 10:46:08;;;;;;;;;6.50;5.50;;;;;21.49;57.87;100639.19;5032170;28;47200;-73
2023/07/31 10:48:34;;;;;;;;;5.75;4.75;;;;;21.51;59.37;100624.78;5045208;28;45655;-72
2023/07/31 10:51:00;;;;;;;;;7.00;6.25;;;;;21.57;58.07;100627.00;5038202;28;45487;-73
2023/07/31 10:53:30;;;;;;;;;4.00;4.00;;;;;21.67;59.13;100627.16;5038412;28;45478;-72
2023/07/31 10:56:01;;;;;;;;;7.00;6.00;;;;;21.77;58.21;100627.31;5035326;28;46416;-71
2023/07/31 10:58:26;;;;;;;;;6.50;6.00;;;;;21.79;58.89;100639.53;5036858;28;45665;-71
2023/07/31 11:00:56;;;;;;;;;6.00;6.00;;;;;21.76;58.47;100633.59;5051280;28;45399;-71
2023/07/31 11:03:25;;;;;;;;;7.50;6.25;;;;;21.76;58.66;100631.81;5031230;28;45411;-72
2023/07/31 11:06:03;;;;;;;;;9.75;5.50;;;;;21.71;58.03;100633.09;5030615;28;45465;-70
2023/07/31 11:08:37;;;;;;;;;9.00;5.25;;;;;21.49;58.49;100631.22;5027824;28;45771;-71
2023/07/31 11:11:02;;;;;;;;;9.50;6.25;;;;;21.20;59.98;100613.75;5018070;28;45469;-71
2023/07/31 11:13:32;;;;;;;;;14.67;8.00;;;;;20.98;61.18;100625.13;5034679;28;45483;-71
2023/07/31 11:15:57;;;;;;;;;7.00;5.50;;;;;20.79;61.45;100625.59;5047321;28;46178;-71
2023/07/31 11:18:23;;;;;;;;;8.25;7.75;;;;;20.66;63.23;100633.59;5030430;28;46504;-71